createdAt,value
2023-04-12T00:03:20.385Z,99556.50
2023-04-12T00:07:24.248Z,99550.41
2023-04-12T00:11:27.538Z,99553.84
2023-04-12T00:15:30.935Z,99545.94
2023-04-12T00:19:35.373Z,99536.31
2023-04-12T00:23:39.521Z,99547.66
2023-04-12T00:27:42.626Z,99551.16
2023-04-12T00:31:45.868Z,99536.25
2023-04-12T00:35:50.444Z,99529.28
2023-04-12T00:39:53.562Z,99517.00
2023-04-12T00:43:57.023Z,99507.41
2023-04-12T00:48:00.536Z,99507.34
2023-04-12T00:52:10.115Z,99502.06
2023-04-12T00:56:13.634Z,99502.91
2023-04-12T01:00:17.494Z,99497.66
2023-04-12T01:04:22.656Z,99494.13
2023-04-12T01:08:37.862Z,99495.88
2023-04-12T01:12:51.514Z,99488.00
2023-04-12T01:16:59.601Z,99488.84
2023-04-12T01:21:09.874Z,99474.00
2023-04-12T01:25:26.415Z,99481.88
2023-04-12T01:29:33.456Z,99471.38
2023-04-12T01:33:39.556Z,99480.06
2023-04-12T01:37:43.342Z,99470.41
2023-04-12T01:41:49.118Z,99464.28
2023-04-12T01:45:54.017Z,99472.09
2023-04-12T01:50:04.329Z,99458.94
2023-04-12T01:54:11.762Z,99463.25
2023-04-12T01:58:18.613Z,99454.44
2023-04-12T02:02:23.737Z,99462.25
2023-04-12T02:06:28.130Z,99448.25
2023-04-12T02:10:31.653Z,99455.16
2023-04-12T02:14:35.023Z,99451.59
2023-04-12T02:18:41.619Z,99454.19
2023-04-12T02:22:47.451Z,99455.97
2023-04-12T02:26:50.908Z,99449.84
2023-04-12T02:30:54.737Z,99447.22
2023-04-12T02:35:02.904Z,99435.81
2023-04-12T02:39:07.917Z,99438.44
2023-04-12T02:43:12.135Z,99427.00
2023-04-12T02:47:19.894Z,99430.41
2023-04-12T02:51:28.213Z,99428.59
2023-04-12T02:55:33.714Z,99426.00
2023-04-12T02:59:41.446Z,99432.97
2023-04-12T03:03:50.555Z,99441.66
2023-04-12T03:08:12.258Z,99439.91
2023-04-12T03:12:22.899Z,99441.59
2023-04-12T03:16:41.093Z,99435.34
2023-04-12T03:20:49.844Z,99441.38
2023-04-12T03:24:55.419Z,99432.56
2023-04-12T03:29:02.061Z,99432.47
2023-04-12T03:33:09.136Z,99441.03
2023-04-12T03:37:12.972Z,99432.13
2023-04-12T03:41:23.397Z,99436.44
2023-04-12T03:45:26.999Z,99426.81
2023-04-12T03:49:33.666Z,99424.91
2023-04-12T03:53:38.212Z,99415.25
2023-04-12T03:57:43.618Z,99419.63
2023-04-12T04:01:48.526Z,99422.25
2023-04-12T04:15:27.115Z,99422.03
2023-04-12T04:19:32.500Z,99413.31
2023-04-12T04:23:39.233Z,99417.69
2023-04-12T04:27:45.100Z,99406.28
2023-04-12T04:31:50.266Z,99408.84
2023-04-12T04:36:10.061Z,99407.84
2023-04-12T04:40:21.328Z,99406.84
2023-04-12T04:44:28.420Z,99413.69
2023-04-12T04:48:32.834Z,99418.84
2023-04-12T04:57:06.493Z,99416.00
2023-04-12T05:01:13.566Z,99414.19
2023-04-12T05:05:18.614Z,99416.78
2023-04-12T05:09:44.362Z,99414.09
2023-04-12T05:13:48.377Z,99433.25
2023-04-12T05:17:52.366Z,99436.75
2023-04-12T05:21:56.597Z,99445.56
2023-04-12T05:26:02.526Z,99449.19
2023-04-12T05:30:22.100Z,99451.91
2023-04-12T05:34:35.172Z,99456.50
2023-04-12T05:38:40.976Z,99454.84
2023-04-12T05:42:52.566Z,99454.06
2023-04-12T05:47:02.098Z,99459.31
2023-04-12T05:51:09.188Z,99446.41
2023-04-12T05:55:13.820Z,99448.31
2023-04-12T05:59:30.524Z,99452.03
2023-04-12T06:03:43.889Z,99450.50
2023-04-12T06:08:09.626Z,99449.81
2023-04-12T06:12:25.279Z,99448.28
2023-04-12T06:20:59.520Z,99440.94
2023-04-12T06:25:09.815Z,99436.03
2023-04-12T06:29:24.929Z,99443.38
2023-04-12T06:33:45.650Z,99433.16
2023-04-12T06:37:56.830Z,99428.97
2023-04-12T06:42:07.379Z,99433.53
2023-04-12T06:46:21.320Z,99435.41
2023-04-12T06:50:39.769Z,99426.78
2023-04-12T06:55:02.171Z,99420.72
2023-04-12T07:07:48.002Z,99406.91
2023-04-12T07:11:51.082Z,99399.06
2023-04-12T07:15:54.556Z,99396.44
2023-04-12T07:19:57.578Z,99385.09
2023-04-12T07:24:01.972Z,99385.03
2023-04-12T07:28:07.001Z,99378.03
2023-04-12T07:32:11.958Z,99366.56
2023-04-12T07:36:16.635Z,99354.22
2023-04-12T07:40:21.510Z,99350.63
2023-04-12T07:44:24.605Z,99346.19
2023-04-12T07:48:27.875Z,99336.41
2023-04-12T07:52:30.955Z,99335.41
2023-04-12T07:56:36.766Z,99335.31
2023-04-12T08:00:39.783Z,99326.53
2023-04-12T08:04:44.933Z,99324.72
2023-04-12T08:08:48.185Z,99324.59
2023-04-12T08:12:52.583Z,99313.03
2023-04-12T08:16:55.581Z,99298.75
2023-04-12T08:20:59.142Z,99310.03
2023-04-12T08:25:02.203Z,99308.19
2023-04-12T08:29:07.029Z,99304.56
2023-04-12T08:33:10.073Z,99302.69
2023-04-12T08:37:13.146Z,99295.50
2023-04-12T08:41:16.733Z,99277.91
2023-04-12T08:45:23.835Z,99283.09
2023-04-12T08:49:27.112Z,99279.56
2023-04-12T08:53:30.159Z,99271.69
2023-04-12T08:57:33.927Z,99260.22
2023-04-12T09:01:41.912Z,99253.00
2023-04-12T09:05:45.106Z,99253.69
2023-04-12T09:09:49.342Z,99252.13
2023-04-12T09:13:52.447Z,99237.03
2023-04-12T09:18:08.718Z,99222.75
2023-04-12T09:22:11.787Z,99215.75
2023-04-12T09:26:28.650Z,99215.69
2023-04-12T10:06:18.538Z,99144.59
2023-04-12T10:10:22.456Z,99138.88
2023-04-12T10:14:29.253Z,99128.81
2023-04-12T10:18:32.775Z,99125.22
2023-04-12T10:22:37.439Z,99111.81
2023-04-12T10:26:43.654Z,99109.59
2023-04-12T10:30:48.234Z,99112.81
2023-04-12T10:34:53.059Z,99115.44
2023-04-12T10:39:12.125Z,99105.56
2023-04-12T10:43:28.029Z,99096.59
2023-04-12T10:48:01.906Z,99091.16
2023-04-12T10:52:18.125Z,99077.75
2023-04-12T10:56:40.020Z,99069.59
2023-04-12T11:01:11.661Z,99062.09
2023-04-12T11:05:19.236Z,99059.88
2023-04-12T11:09:28.533Z,99053.09
2023-04-12T11:13:37.031Z,99042.63
2023-04-12T11:17:40.054Z,99038.16
2023-04-12T11:21:43.489Z,99031.88
2023-04-12T11:25:51.126Z,99027.97
2023-04-12T11:29:57.143Z,99018.69
2023-04-12T11:34:01.138Z,99022.59
2023-04-12T11:38:04.929Z,99019.34
2023-04-12T11:42:09.396Z,99015.13
2023-04-12T11:46:14.054Z,99002.28
2023-04-12T11:50:29.862Z,98996.03
2023-04-12T11:54:34.218Z,98984.13
2023-04-12T11:58:37.146Z,98981.94
2023-04-12T12:02:52.244Z,98971.25
2023-04-12T12:07:00.339Z,98964.22
2023-04-12T12:11:07.908Z,98973.59
2023-04-12T12:15:11.963Z,98965.13
2023-04-12T12:19:16.216Z,98965.78
2023-04-12T12:23:32.120Z,98949.09
2023-04-12T12:27:37.340Z,98938.38
2023-04-12T12:31:47.761Z,98940.94
2023-04-12T12:35:58.054Z,98933.97
2023-04-12T12:40:11.284Z,98926.94
2023-04-12T12:44:14.408Z,98918.25
2023-04-12T12:48:19.358Z,98905.91
2023-04-12T12:52:23.963Z,98907.50
2023-04-12T12:56:27.051Z,98899.97
2023-04-12T13:00:31.584Z,98888.19
2023-04-12T13:04:35.084Z,98886.84
2023-04-12T13:08:39.406Z,98876.97
2023-04-12T13:12:42.452Z,98875.16
2023-04-12T13:16:46.110Z,98859.31
2023-04-12T13:20:49.299Z,98860.97
2023-04-12T13:24:53.552Z,98853.16
2023-04-12T13:28:56.879Z,98850.31
2023-04-12T13:33:00.331Z,98845.69
2023-04-12T13:37:04.024Z,98836.56
2023-04-12T13:41:08.741Z,98834.13
2023-04-12T13:45:12.889Z,98827.75
2023-04-12T13:49:15.764Z,98824.66
2023-04-12T13:53:18.684Z,98817.81
2023-04-12T13:57:23.557Z,98816.53
2023-04-12T14:01:27.034Z,98806.22
2023-04-12T14:05:30.074Z,98808.13
2023-04-12T14:09:33.817Z,98802.25
2023-04-12T14:13:38.272Z,98800.66
2023-04-12T14:17:41.361Z,98802.69
2023-04-12T14:21:44.349Z,98795.66
2023-04-12T14:25:47.267Z,98780.13
2023-04-12T14:29:51.530Z,98788.41
2023-04-12T14:33:54.454Z,98777.00
2023-04-12T14:37:57.461Z,98777.97
2023-04-12T14:42:01.320Z,98776.31
2023-04-12T14:46:05.987Z,98770.16
2023-04-12T14:50:09.516Z,98771.13
2023-04-12T14:54:12.400Z,98758.75
2023-04-12T14:58:15.320Z,98755.47
2023-04-12T15:02:22.158Z,98745.19
2023-04-12T15:06:27.203Z,98743.44
2023-04-12T15:10:31.531Z,98740.75
2023-04-12T15:14:34.629Z,98723.88
2023-04-12T15:18:41.682Z,98725.56
2023-04-12T15:22:44.995Z,98709.63
2023-04-12T15:26:48.725Z,98714.13
2023-04-12T15:30:51.814Z,98709.59
2023-04-12T15:34:56.647Z,98700.91
2023-04-12T15:38:59.554Z,98710.56
2023-04-12T15:43:02.448Z,98716.78
2023-04-12T15:47:11.033Z,98708.06
2023-04-12T15:51:16.534Z,98701.97
2023-04-12T15:55:21.856Z,98706.19
2023-04-12T15:59:24.749Z,98708.94
2023-04-12T16:03:27.730Z,98708.94
2023-04-12T16:07:33.901Z,98697.38
2023-04-12T16:11:37.215Z,98695.66
2023-04-12T16:15:40.759Z,98700.25
2023-04-12T16:19:43.806Z,98708.31
2023-04-12T16:23:49.196Z,98694.28
2023-04-12T16:27:52.308Z,98699.72
2023-04-12T16:31:55.302Z,98677.75
2023-04-12T16:35:58.485Z,98669.78
2023-04-12T16:40:05.065Z,98664.53
2023-04-12T16:44:08.027Z,98669.88
2023-04-12T16:48:11.754Z,98665.41
2023-04-12T16:52:15.466Z,98662.03
2023-04-12T16:56:19.989Z,98657.63
2023-04-12T17:00:23.804Z,98651.53
2023-04-12T17:04:26.810Z,98647.25
2023-04-12T17:08:29.790Z,98648.22
2023-04-12T17:12:34.101Z,98653.56
2023-04-12T17:16:37.332Z,98651.03
2023-04-12T17:20:40.510Z,98656.41
2023-04-12T17:24:43.993Z,98653.91
2023-04-12T17:28:48.347Z,98655.63
2023-04-12T17:32:52.287Z,98662.34
2023-04-12T17:36:55.713Z,98674.47
2023-04-12T17:40:58.694Z,98665.00
2023-04-12T17:45:03.465Z,98664.31
2023-04-12T17:49:06.720Z,98669.84
2023-04-12T17:53:09.709Z,98664.69
2023-04-12T17:57:13.440Z,98662.16
2023-04-12T18:01:17.871Z,98662.34
2023-04-12T18:05:20.829Z,98650.22
2023-04-12T18:09:23.776Z,98635.47
2023-04-12T18:13:27.232Z,98627.88
2023-04-12T18:17:32.032Z,98628.13
2023-04-12T18:21:35.852Z,98619.44
2023-04-12T18:25:39.789Z,98623.97
2023-04-12T18:29:42.685Z,98627.56
2023-04-12T18:33:47.794Z,98631.31
2023-04-12T18:37:50.767Z,98628.78
2023-04-12T18:41:54.216Z,98627.06
2023-04-12T18:45:57.173Z,98626.28
2023-04-12T18:50:01.671Z,98640.50
2023-04-12T18:54:05.199Z,98631.84
2023-04-12T18:58:08.240Z,98630.28
2023-04-12T19:02:12.253Z,98629.63
2023-04-12T19:06:17.059Z,98621.69
2023-04-12T19:10:20.083Z,98621.81
2023-04-12T19:14:23.651Z,98628.00
2023-04-12T19:18:29.986Z,98634.28
2023-04-12T19:22:34.278Z,98629.97
2023-04-12T19:26:39.945Z,98637.13
2023-04-12T19:30:42.867Z,98640.63
2023-04-12T19:34:46.639Z,98645.94
2023-04-12T19:38:51.866Z,98644.25
2023-04-12T19:42:55.038Z,98636.34
2023-04-12T19:46:57.947Z,98639.03
2023-04-12T19:51:00.956Z,98643.56
2023-04-12T19:55:05.962Z,98623.56
2023-04-12T19:59:10.556Z,98619.34
2023-04-12T20:03:13.477Z,98611.50
2023-04-12T20:07:16.440Z,98608.00
2023-04-12T20:11:21.508Z,98608.97
2023-04-12T20:15:24.596Z,98617.81
2023-04-12T20:19:28.184Z,98608.34
2023-04-12T20:23:31.993Z,98603.16
2023-04-12T20:27:36.687Z,98608.50
2023-04-12T20:31:39.613Z,98610.38
2023-04-12T20:35:43.362Z,98599.94
2023-04-12T20:39:46.336Z,98584.09
2023-04-12T20:43:50.905Z,98581.56
2023-04-12T20:47:53.838Z,98574.56
2023-04-12T20:51:57.241Z,98574.59
2023-04-12T20:56:00.222Z,98572.03
2023-04-12T21:00:12.488Z,98572.09
2023-04-12T21:04:15.613Z,98571.31
2023-04-12T21:08:18.752Z,98575.06
2023-04-12T21:12:21.666Z,98573.53
2023-04-12T21:16:26.264Z,98568.31
2023-04-12T21:20:30.400Z,98564.06
2023-04-12T21:24:38.097Z,98559.00
2023-04-12T21:28:41.040Z,98567.00
2023-04-12T21:32:45.600Z,98563.59
2023-04-12T21:36:48.608Z,98551.28
2023-04-12T21:40:52.017Z,98546.00
2023-04-12T21:44:54.952Z,98554.84
2023-04-12T21:48:59.433Z,98547.81
2023-04-12T21:53:02.505Z,98543.50
2023-04-12T21:57:06.249Z,98535.69
2023-04-12T22:01:09.264Z,98538.38
2023-04-12T22:05:13.632Z,98535.81
2023-04-12T22:09:16.549Z,98540.25
2023-04-12T22:13:23.615Z,98528.09
2023-04-12T22:17:26.644Z,98524.00
2023-04-12T22:21:31.019Z,98527.53
2023-04-12T22:25:35.219Z,98533.66
2023-04-12T22:29:38.439Z,98532.84
2023-04-12T22:33:41.382Z,98532.88
2023-04-12T22:37:45.688Z,98526.84
2023-04-12T22:41:49.725Z,98529.47
2023-04-12T22:45:54.129Z,98531.34
2023-04-12T22:49:58.213Z,98542.97
2023-04-12T22:54:06.081Z,98536.88
2023-04-12T22:58:09.197Z,98528.16
2023-04-12T23:02:12.215Z,98529.88
2023-04-12T23:06:15.246Z,98525.47
2023-04-12T23:10:20.634Z,98528.97
2023-04-12T23:14:23.913Z,98530.81
2023-04-12T23:18:27.426Z,98523.81
2023-04-12T23:22:56.125Z,98526.47
2023-04-12T23:27:03.015Z,98519.50
2023-04-12T23:31:07.024Z,98518.63
2023-04-12T23:35:10.662Z,98509.88
2023-04-12T23:39:13.617Z,98506.56
2023-04-12T23:43:17.883Z,98503.97
2023-04-12T23:47:20.765Z,98499.53
2023-04-12T23:51:23.708Z,98503.03
2023-04-12T23:55:26.745Z,98502.16
2023-04-12T23:59:31.548Z,98505.69
